sensor_id;sensor_type;location;lat;lon;timestamp;P1;durP1;ratioP1;P2;durP2;ratioP2
21729;SDS011;11027;51.030;13.812;2022-09-24T00:00:44;6.05;;;3.30;;
21729;SDS011;11027;51.030;13.812;2022-09-24T00:03:10;5.72;;;3.47;;
21729;SDS011;11027;51.030;13.812;2022-09-24T00:05:38;4.13;;;3.42;;
21729;SDS011;11027;51.030;13.812;2022-09-24T00:08:08;5.78;;;3.58;;
21729;SDS011;11027;51.030;13.812;2022-09-24T00:10:37;5.88;;;3.40;;
21729;SDS011;11027;51.030;13.812;2022-09-24T00:13:03;5.70;;;3.63;;
21729;SDS011;11027;51.030;13.812;2022-09-24T00:15:30;5.82;;;3.78;;
21729;SDS011;11027;51.030;13.812;2022-09-24T00:17:55;6.55;;;3.92;;
21729;SDS011;11027;51.030;13.812;2022-09-24T00:20:21;4.93;;;3.30;;
21729;SDS011;11027;51.030;13.812;2022-09-24T00:22:47;5.70;;;3.90;;
21729;SDS011;11027;51.030;13.812;2022-09-24T00:25:12;5.60;;;3.63;;
21729;SDS011;11027;51.030;13.812;2022-09-24T00:27:56;5.75;;;3.55;;
21729;SDS011;11027;51.030;13.812;2022-09-24T00:30:21;4.45;;;3.33;;
21729;SDS011;11027;51.030;13.812;2022-09-24T00:32:46;6.18;;;3.55;;
21729;SDS011;11027;51.030;13.812;2022-09-24T00:35:11;4.68;;;3.33;;
21729;SDS011;11027;51.030;13.812;2022-09-24T00:37:37;6.97;;;3.50;;
21729;SDS011;11027;51.030;13.812;2022-09-24T00:40:02;4.88;;;3.65;;
21729;SDS011;11027;51.030;13.812;2022-09-24T00:42:28;7.05;;;3.60;;
21729;SDS011;11027;51.030;13.812;2022-09-24T00:44:56;8.60;;;3.75;;
21729;SDS011;11027;51.030;13.812;2022-09-24T00:47:27;8.40;;;3.92;;
21729;SDS011;11027;51.030;13.812;2022-09-24T00:50:09;5.47;;;3.33;;
21729;SDS011;11027;51.030;13.812;2022-09-24T00:52:41;6.90;;;3.75;;
21729;SDS011;11027;51.030;13.812;2022-09-24T00:55:10;6.80;;;3.72;;
21729;SDS011;11027;51.030;13.812;2022-09-24T00:57:37;5.60;;;3.40;;
21729;SDS011;11027;51.030;13.812;2022-09-24T01:00:04;6.20;;;3.40;;
21729;SDS011;11027;51.030;13.812;2022-09-24T01:02:31;4.97;;;3.45;;
21729;SDS011;11027;51.030;13.812;2022-09-24T01:05:00;7.10;;;3.53;;
21729;SDS011;11027;51.030;13.812;2022-09-24T01:07:25;5.50;;;3.53;;
21729;SDS011;11027;51.030;13.812;2022-09-24T01:09:51;4.38;;;3.42;;
21729;SDS011;11027;51.030;13.812;2022-09-24T01:20:35;4.47;;;3.13;;
21729;SDS011;11027;51.030;13.812;2022-09-24T01:23:26;3.90;;;3.22;;
21729;SDS011;11027;51.030;13.812;2022-09-24T01:27:08;5.63;;;3.25;;
21729;SDS011;11027;51.030;13.812;2022-09-24T01:29:30;6.68;;;3.45;;
21729;SDS011;11027;51.030;13.812;2022-09-24T01:32:27;3.90;;;3.13;;
21729;SDS011;11027;51.030;13.812;2022-09-24T01:34:59;4.53;;;3.47;;
21729;SDS011;11027;51.030;13.812;2022-09-24T01:37:29;7.20;;;3.65;;
21729;SDS011;11027;51.030;13.812;2022-09-24T01:39:58;5.03;;;3.60;;
21729;SDS011;11027;51.030;13.812;2022-09-24T01:42:26;4.05;;;3.20;;
21729;SDS011;11027;51.030;13.812;2022-09-24T01:44:54;5.47;;;3.40;;
21729;SDS011;11027;51.030;13.812;2022-09-24T01:47:28;4.43;;;3.17;;
21729;SDS011;11027;51.030;13.812;2022-09-24T01:49:55;5.80;;;3.20;;
21729;SDS011;11027;51.030;13.812;2022-09-24T01:52:24;4.35;;;3.50;;
21729;SDS011;11027;51.030;13.812;2022-09-24T01:54:53;6.60;;;3.50;;
21729;SDS011;11027;51.030;13.812;2022-09-24T01:57:26;4.25;;;3.33;;
21729;SDS011;11027;51.030;13.812;2022-09-24T02:00:00;6.00;;;3.50;;
21729;SDS011;11027;51.030;13.812;2022-09-24T02:02:36;6.47;;;3.80;;
21729;SDS011;11027;51.030;13.812;2022-09-24T02:08:31;7.40;;;3.53;;
21729;SDS011;11027;51.030;13.812;2022-09-24T02:11:01;4.50;;;3.35;;
21729;SDS011;11027;51.030;13.812;2022-09-24T02:13:33;6.93;;;3.67;;
21729;SDS011;11027;51.030;13.812;2022-09-24T02:16:04;6.60;;;3.50;;
21729;SDS011;11027;51.030;13.812;2022-09-24T02:18:32;4.47;;;3.25;;
21729;SDS011;11027;51.030;13.812;2022-09-24T02:21:01;5.05;;;3.30;;
21729;SDS011;11027;51.030;13.812;2022-09-24T02:23:31;4.47;;;3.30;;
21729;SDS011;11027;51.030;13.812;2022-09-24T02:26:01;4.68;;;3.15;;
21729;SDS011;11027;51.030;13.812;2022-09-24T02:28:26;5.45;;;3.33;;
21729;SDS011;11027;51.030;13.812;2022-09-24T02:30:54;4.65;;;3.40;;
21729;SDS011;11027;51.030;13.812;2022-09-24T02:33:26;5.50;;;3.65;;
21729;SDS011;11027;51.030;13.812;2022-09-24T02:36:12;6.82;;;3.53;;
21729;SDS011;11027;51.030;13.812;2022-09-24T02:38:37;4.07;;;3.33;;
21729;SDS011;11027;51.030;13.812;2022-09-24T02:41:03;3.85;;;3.35;;
21729;SDS011;11027;51.030;13.812;2022-09-24T02:43:31;8.05;;;3.40;;
21729;SDS011;11027;51.030;13.812;2022-09-24T02:45:58;4.85;;;3.25;;
21729;SDS011;11027;51.030;13.812;2022-09-24T02:48:24;5.60;;;3.80;;
21729;SDS011;11027;51.030;13.812;2022-09-24T02:50:49;5.68;;;3.53;;
21729;SDS011;11027;51.030;13.812;2022-09-24T02:53:14;5.15;;;3.47;;
21729;SDS011;11027;51.030;13.812;2022-09-24T02:55:40;7.68;;;3.28;;
21729;SDS011;11027;51.030;13.812;2022-09-24T02:58:05;3.95;;;3.05;;
21729;SDS011;11027;51.030;13.812;2022-09-24T03:00:31;4.43;;;3.47;;
21729;SDS011;11027;51.030;13.812;2022-09-24T03:02:56;7.45;;;3.35;;
21729;SDS011;11027;51.030;13.812;2022-09-24T03:05:21;5.28;;;3.80;;
21729;SDS011;11027;51.030;13.812;2022-09-24T03:07:46;7.05;;;3.33;;
21729;SDS011;11027;51.030;13.812;2022-09-24T03:10:12;7.03;;;3.28;;
21729;SDS011;11027;51.030;13.812;2022-09-24T03:12:37;4.22;;;3.72;;
21729;SDS011;11027;51.030;13.812;2022-09-24T03:15:02;5.30;;;3.90;;
21729;SDS011;11027;51.030;13.812;2022-09-24T03:17:28;4.65;;;3.38;;
21729;SDS011;11027;51.030;13.812;2022-09-24T03:19:53;4.97;;;3.50;;
21729;SDS011;11027;51.030;13.812;2022-09-24T03:22:19;4.97;;;3.10;;
21729;SDS011;11027;51.030;13.812;2022-09-24T03:24:44;6.13;;;3.83;;
21729;SDS011;11027;51.030;13.812;2022-09-24T03:27:09;5.75;;;3.33;;
21729;SDS011;11027;51.030;13.812;2022-09-24T03:29:34;5.10;;;3.80;;
21729;SDS011;11027;51.030;13.812;2022-09-24T03:32:18;4.93;;;3.72;;
21729;SDS011;11027;51.030;13.812;2022-09-24T03:34:44;6.13;;;3.55;;
21729;SDS011;11027;51.030;13.812;2022-09-24T03:37:09;5.38;;;3.60;;
21729;SDS011;11027;51.030;13.812;2022-09-24T03:39:34;4.72;;;3.58;;
21729;SDS011;11027;51.030;13.812;2022-09-24T03:41:59;5.60;;;4.07;;
21729;SDS011;11027;51.030;13.812;2022-09-24T03:44:25;8.20;;;3.75;;
21729;SDS011;11027;51.030;13.812;2022-09-24T03:46:51;6.65;;;3.47;;
21729;SDS011;11027;51.030;13.812;2022-09-24T03:49:16;5.60;;;3.75;;
21729;SDS011;11027;51.030;13.812;2022-09-24T03:51:41;4.78;;;3.80;;
21729;SDS011;11027;51.030;13.812;2022-09-24T03:54:07;6.65;;;3.50;;
21729;SDS011;11027;51.030;13.812;2022-09-24T03:56:32;6.10;;;4.25;;
21729;SDS011;11027;51.030;13.812;2022-09-24T03:58:57;4.80;;;3.40;;
21729;SDS011;11027;51.030;13.812;2022-09-24T04:01:22;6.28;;;3.88;;
21729;SDS011;11027;51.030;13.812;2022-09-24T04:03:48;7.47;;;3.67;;
21729;SDS011;11027;51.030;13.812;2022-09-24T04:06:14;4.05;;;3.45;;
21729;SDS011;11027;51.030;13.812;2022-09-24T04:08:39;5.45;;;4.03;;
21729;SDS011;11027;51.030;13.812;2022-09-24T04:11:05;5.13;;;3.80;;
21729;SDS011;11027;51.030;13.812;2022-09-24T04:13:30;6.10;;;3.80;;
21729;SDS011;11027;51.030;13.812;2022-09-24T04:15:59;8.18;;;4.07;;
21729;SDS011;11027;51.030;13.812;2022-09-24T04:18:25;5.70;;;3.90;;
21729;SDS011;11027;51.030;13.812;2022-09-24T04:20:55;6.47;;;3.83;;
21729;SDS011;11027;51.030;13.812;2022-09-24T04:23:22;5.35;;;4.05;;
21729;SDS011;11027;51.030;13.812;2022-09-24T04:25:47;7.18;;;3.83;;
21729;SDS011;11027;51.030;13.812;2022-09-24T04:28:12;5.47;;;3.85;;
21729;SDS011;11027;51.030;13.812;2022-09-24T04:30:37;4.72;;;3.65;;
21729;SDS011;11027;51.030;13.812;2022-09-24T04:33:03;5.03;;;3.90;;
21729;SDS011;11027;51.030;13.812;2022-09-24T04:35:30;5.68;;;3.80;;
21729;SDS011;11027;51.030;13.812;2022-09-24T04:37:56;6.05;;;3.80;;
21729;SDS011;11027;51.030;13.812;2022-09-24T04:40:23;7.53;;;4.22;;
21729;SDS011;11027;51.030;13.812;2022-09-24T04:42:48;5.70;;;3.60;;
21729;SDS011;11027;51.030;13.812;2022-09-24T04:45:14;5.15;;;3.75;;
21729;SDS011;11027;51.030;13.812;2022-09-24T04:47:44;6.43;;;4.03;;
21729;SDS011;11027;51.030;13.812;2022-09-24T04:50:20;4.97;;;3.90;;
21729;SDS011;11027;51.030;13.812;2022-09-24T04:52:45;7.57;;;3.70;;
21729;SDS011;11027;51.030;13.812;2022-09-24T04:55:11;5.38;;;4.05;;
21729;SDS011;11027;51.030;13.812;2022-09-24T04:57:36;7.25;;;3.92;;
21729;SDS011;11027;51.030;13.812;2022-09-24T05:00:05;8.73;;;4.20;;
21729;SDS011;11027;51.030;13.812;2022-09-24T05:02:33;4.10;;;3.60;;
21729;SDS011;11027;51.030;13.812;2022-09-24T05:04:58;7.45;;;4.18;;
21729;SDS011;11027;51.030;13.812;2022-09-24T05:07:23;9.43;;;3.67;;
21729;SDS011;11027;51.030;13.812;2022-09-24T05:09:49;5.15;;;3.75;;
21729;SDS011;11027;51.030;13.812;2022-09-24T05:12:14;5.80;;;4.03;;
21729;SDS011;11027;51.030;13.812;2022-09-24T05:14:39;6.35;;;4.35;;
21729;SDS011;11027;51.030;13.812;2022-09-24T05:17:05;7.10;;;4.00;;
21729;SDS011;11027;51.030;13.812;2022-09-24T05:19:30;6.28;;;4.20;;
21729;SDS011;11027;51.030;13.812;2022-09-24T05:21:55;5.22;;;3.90;;
21729;SDS011;11027;51.030;13.812;2022-09-24T05:24:20;7.03;;;4.05;;
21729;SDS011;11027;51.030;13.812;2022-09-24T05:26:46;5.20;;;4.07;;
21729;SDS011;11027;51.030;13.812;2022-09-24T05:29:30;8.10;;;4.20;;
21729;SDS011;11027;51.030;13.812;2022-09-24T05:31:55;6.95;;;3.88;;
21729;SDS011;11027;51.030;13.812;2022-09-24T05:34:20;5.53;;;4.20;;
21729;SDS011;11027;51.030;13.812;2022-09-24T05:36:46;7.93;;;4.28;;
21729;SDS011;11027;51.030;13.812;2022-09-24T05:39:11;5.88;;;3.97;;
21729;SDS011;11027;51.030;13.812;2022-09-24T05:41:39;7.80;;;4.28;;
21729;SDS011;11027;51.030;13.812;2022-09-24T05:44:05;5.63;;;4.07;;
21729;SDS011;11027;51.030;13.812;2022-09-24T05:46:31;6.15;;;4.03;;
21729;SDS011;11027;51.030;13.812;2022-09-24T05:48:56;6.18;;;4.43;;
21729;SDS011;11027;51.030;13.812;2022-09-24T05:51:22;6.05;;;3.53;;
21729;SDS011;11027;51.030;13.812;2022-09-24T05:53:47;8.65;;;4.25;;
21729;SDS011;11027;51.030;13.812;2022-09-24T05:56:14;10.80;;;4.53;;
21729;SDS011;11027;51.030;13.812;2022-09-24T05:58:39;10.43;;;4.50;;
21729;SDS011;11027;51.030;13.812;2022-09-24T06:01:04;5.95;;;4.20;;
21729;SDS011;11027;51.030;13.812;2022-09-24T06:03:30;6.03;;;4.05;;
21729;SDS011;11027;51.030;13.812;2022-09-24T06:05:55;11.25;;;4.60;;
21729;SDS011;11027;51.030;13.812;2022-09-24T06:08:23;8.32;;;4.50;;
21729;SDS011;11027;51.030;13.812;2022-09-24T06:10:48;7.93;;;4.30;;
21729;SDS011;11027;51.030;13.812;2022-09-24T06:13:17;7.55;;;4.20;;
21729;SDS011;11027;51.030;13.812;2022-09-24T06:15:43;6.22;;;3.97;;
21729;SDS011;11027;51.030;13.812;2022-09-24T06:18:09;7.28;;;4.30;;
21729;SDS011;11027;51.030;13.812;2022-09-24T06:20:35;5.97;;;4.15;;
21729;SDS011;11027;51.030;13.812;2022-09-24T06:23:01;8.32;;;3.92;;
21729;SDS011;11027;51.030;13.812;2022-09-24T06:25:27;6.57;;;4.30;;
21729;SDS011;11027;51.030;13.812;2022-09-24T06:27:54;6.53;;;4.45;;
21729;SDS011;11027;51.030;13.812;2022-09-24T06:30:24;6.82;;;4.28;;
21729;SDS011;11027;51.030;13.812;2022-09-24T06:32:49;7.38;;;4.45;;
21729;SDS011;11027;51.030;13.812;2022-09-24T06:35:14;5.55;;;4.15;;
21729;SDS011;11027;51.030;13.812;2022-09-24T06:37:40;5.75;;;4.35;;
21729;SDS011;11027;51.030;13.812;2022-09-24T06:40:05;5.07;;;3.85;;
21729;SDS011;11027;51.030;13.812;2022-09-24T06:42:31;6.28;;;4.38;;
21729;SDS011;11027;51.030;13.812;2022-09-24T06:44:56;8.52;;;4.43;;
21729;SDS011;11027;51.030;13.812;2022-09-24T06:47:21;6.75;;;5.00;;
21729;SDS011;11027;51.030;13.812;2022-09-24T06:49:48;8.82;;;4.75;;
21729;SDS011;11027;51.030;13.812;2022-09-24T06:52:14;8.60;;;5.18;;
21729;SDS011;11027;51.030;13.812;2022-09-24T06:54:40;8.70;;;4.60;;
21729;SDS011;11027;51.030;13.812;2022-09-24T06:57:05;7.45;;;4.93;;
21729;SDS011;11027;51.030;13.812;2022-09-24T06:59:30;8.38;;;4.57;;
21729;SDS011;11027;51.030;13.812;2022-09-24T07:01:56;8.77;;;4.38;;
21729;SDS011;11027;51.030;13.812;2022-09-24T07:04:23;8.23;;;4.65;;
21729;SDS011;11027;51.030;13.812;2022-09-24T07:06:48;6.07;;;4.45;;
21729;SDS011;11027;51.030;13.812;2022-09-24T07:09:32;6.63;;;4.22;;
21729;SDS011;11027;51.030;13.812;2022-09-24T07:11:57;6.82;;;4.40;;
21729;SDS011;11027;51.030;13.812;2022-09-24T07:14:25;7.53;;;4.50;;
21729;SDS011;11027;51.030;13.812;2022-09-24T07:16:50;7.10;;;4.57;;
21729;SDS011;11027;51.030;13.812;2022-09-24T07:19:17;6.88;;;4.28;;
21729;SDS011;11027;51.030;13.812;2022-09-24T07:21:43;6.18;;;4.68;;
21729;SDS011;11027;51.030;13.812;2022-09-24T07:24:08;6.30;;;4.07;;
21729;SDS011;11027;51.030;13.812;2022-09-24T07:26:33;7.70;;;4.40;;
21729;SDS011;11027;51.030;13.812;2022-09-24T07:28:58;7.03;;;4.38;;
21729;SDS011;11027;51.030;13.812;2022-09-24T07:31:24;6.65;;;4.53;;
21729;SDS011;11027;51.030;13.812;2022-09-24T07:33:50;6.05;;;4.60;;
21729;SDS011;11027;51.030;13.812;2022-09-24T07:36:15;8.05;;;4.60;;
21729;SDS011;11027;51.030;13.812;2022-09-24T07:38:40;7.13;;;4.75;;
21729;SDS011;11027;51.030;13.812;2022-09-24T07:41:06;11.63;;;4.90;;
21729;SDS011;11027;51.030;13.812;2022-09-24T07:43:33;7.13;;;4.82;;
21729;SDS011;11027;51.030;13.812;2022-09-24T07:45:58;7.47;;;5.35;;
21729;SDS011;11027;51.030;13.812;2022-09-24T07:48:24;9.40;;;5.47;;
21729;SDS011;11027;51.030;13.812;2022-09-24T07:50:49;6.70;;;5.45;;
21729;SDS011;11027;51.030;13.812;2022-09-24T07:53:15;7.97;;;5.15;;
21729;SDS011;11027;51.030;13.812;2022-09-24T07:55:41;6.88;;;5.13;;
21729;SDS011;11027;51.030;13.812;2022-09-24T07:58:13;11.98;;;5.30;;
21729;SDS011;11027;51.030;13.812;2022-09-24T08:00:38;102.00;;;9.52;;
21729;SDS011;11027;51.030;13.812;2022-09-24T08:03:04;7.78;;;5.40;;
21729;SDS011;11027;51.030;13.812;2022-09-24T08:05:31;9.30;;;5.13;;
21729;SDS011;11027;51.030;13.812;2022-09-24T08:07:57;7.47;;;4.80;;
21729;SDS011;11027;51.030;13.812;2022-09-24T08:10:23;7.78;;;5.40;;
21729;SDS011;11027;51.030;13.812;2022-09-24T08:12:50;7.43;;;4.90;;
21729;SDS011;11027;51.030;13.812;2022-09-24T08:15:15;7.40;;;4.95;;
21729;SDS011;11027;51.030;13.812;2022-09-24T08:17:41;6.75;;;4.60;;
21729;SDS011;11027;51.030;13.812;2022-09-24T08:20:06;5.80;;;4.30;;
21729;SDS011;11027;51.030;13.812;2022-09-24T08:22:32;6.43;;;4.47;;
21729;SDS011;11027;51.030;13.812;2022-09-24T08:24:57;5.10;;;3.83;;
21729;SDS011;11027;51.030;13.812;2022-09-24T08:27:23;6.55;;;4.03;;
21729;SDS011;11027;51.030;13.812;2022-09-24T08:29:49;7.50;;;3.92;;
21729;SDS011;11027;51.030;13.812;2022-09-24T08:32:15;7.85;;;4.50;;
21729;SDS011;11027;51.030;13.812;2022-09-24T08:34:41;8.60;;;5.20;;
21729;SDS011;11027;51.030;13.812;2022-09-24T08:37:07;7.82;;;4.43;;
21729;SDS011;11027;51.030;13.812;2022-09-24T08:39:32;12.27;;;5.63;;
21729;SDS011;11027;51.030;13.812;2022-09-24T08:42:04;7.32;;;4.93;;
21729;SDS011;11027;51.030;13.812;2022-09-24T08:44:38;5.60;;;4.45;;
21729;SDS011;11027;51.030;13.812;2022-09-24T08:55:12;6.93;;;4.20;;
21729;SDS011;11027;51.030;13.812;2022-09-24T08:57:48;5.78;;;3.90;;
21729;SDS011;11027;51.030;13.812;2022-09-24T09:00:22;9.13;;;4.32;;
21729;SDS011;11027;51.030;13.812;2022-09-24T09:02:58;10.30;;;4.70;;
21729;SDS011;11027;51.030;13.812;2022-09-24T09:08:17;11.07;;;5.03;;
21729;SDS011;11027;51.030;13.812;2022-09-24T09:10:52;7.90;;;4.65;;
21729;SDS011;11027;51.030;13.812;2022-09-24T09:13:23;7.65;;;5.40;;
21729;SDS011;11027;51.030;13.812;2022-09-24T09:19:13;10.27;;;4.20;;
21729;SDS011;11027;51.030;13.812;2022-09-24T09:21:41;8.27;;;4.90;;
21729;SDS011;11027;51.030;13.812;2022-09-24T09:24:57;8.07;;;4.28;;
21729;SDS011;11027;51.030;13.812;2022-09-24T09:27:09;6.63;;;4.18;;
21729;SDS011;11027;51.030;13.812;2022-09-24T09:29:38;6.45;;;4.47;;
21729;SDS011;11027;51.030;13.812;2022-09-24T09:35:50;7.90;;;4.40;;
21729;SDS011;11027;51.030;13.812;2022-09-24T09:38:24;5.90;;;4.28;;
21729;SDS011;11027;51.030;13.812;2022-09-24T09:40:58;6.95;;;4.60;;
21729;SDS011;11027;51.030;13.812;2022-09-24T09:43:30;5.95;;;4.05;;
21729;SDS011;11027;51.030;13.812;2022-09-24T09:48:47;5.65;;;4.25;;
21729;SDS011;11027;51.030;13.812;2022-09-24T09:51:19;5.53;;;4.40;;
21729;SDS011;11027;51.030;13.812;2022-09-24T09:53:55;4.43;;;3.85;;
21729;SDS011;11027;51.030;13.812;2022-09-24T09:56:23;8.50;;;4.78;;
21729;SDS011;11027;51.030;13.812;2022-09-24T09:58:59;6.20;;;4.32;;
21729;SDS011;11027;51.030;13.812;2022-09-24T10:01:30;6.22;;;4.07;;
21729;SDS011;11027;51.030;13.812;2022-09-24T10:03:57;6.15;;;4.03;;
21729;SDS011;11027;51.030;13.812;2022-09-24T10:06:28;4.68;;;3.50;;
21729;SDS011;11027;51.030;13.812;2022-09-24T10:09:06;7.38;;;3.92;;
21729;SDS011;11027;51.030;13.812;2022-09-24T10:11:31;6.15;;;3.33;;
21729;SDS011;11027;51.030;13.812;2022-09-24T10:14:00;4.03;;;3.20;;
21729;SDS011;11027;51.030;13.812;2022-09-24T10:16:26;6.43;;;3.70;;
21729;SDS011;11027;51.030;13.812;2022-09-24T10:18:52;4.15;;;3.40;;
21729;SDS011;11027;51.030;13.812;2022-09-24T10:21:25;4.82;;;3.20;;
21729;SDS011;11027;51.030;13.812;2022-09-24T10:23:58;6.13;;;3.10;;
21729;SDS011;11027;51.030;13.812;2022-09-24T10:26:36;3.72;;;3.00;;
21729;SDS011;11027;51.030;13.812;2022-09-24T10:29:03;4.55;;;3.00;;
21729;SDS011;11027;51.030;13.812;2022-09-24T10:31:56;6.82;;;2.90;;
21729;SDS011;11027;51.030;13.812;2022-09-24T10:34:25;4.13;;;2.80;;
21729;SDS011;11027;51.030;13.812;2022-09-24T10:36:55;3.75;;;2.75;;
21729;SDS011;11027;51.030;13.812;2022-09-24T10:39:26;6.50;;;2.90;;
21729;SDS011;11027;51.030;13.812;2022-09-24T10:41:52;4.60;;;2.30;;
21729;SDS011;11027;51.030;13.812;2022-09-24T10:44:23;2.55;;;2.30;;
21729;SDS011;11027;51.030;13.812;2022-09-24T10:47:01;4.55;;;2.70;;
21729;SDS011;11027;51.030;13.812;2022-09-24T10:49:46;3.50;;;2.47;;
21729;SDS011;11027;51.030;13.812;2022-09-24T10:52:46;3.55;;;2.80;;
21729;SDS011;11027;51.030;13.812;2022-09-24T10:58:09;3.78;;;2.78;;
21729;SDS011;11027;51.030;13.812;2022-09-24T11:03:30;3.28;;;2.42;;
21729;SDS011;11027;51.030;13.812;2022-09-24T11:06:42;5.32;;;3.13;;
21729;SDS011;11027;51.030;13.812;2022-09-24T11:09:36;5.13;;;3.20;;
21729;SDS011;11027;51.030;13.812;2022-09-24T11:12:57;3.67;;;2.38;;
21729;SDS011;11027;51.030;13.812;2022-09-24T11:27:19;5.15;;;2.25;;
21729;SDS011;11027;51.030;13.812;2022-09-24T11:30:05;3.05;;;2.42;;
21729;SDS011;11027;51.030;13.812;2022-09-24T11:38:47;2.97;;;1.98;;
21729;SDS011;11027;51.030;13.812;2022-09-24T11:49:42;6.88;;;2.50;;
21729;SDS011;11027;51.030;13.812;2022-09-24T11:52:32;2.40;;;2.05;;
21729;SDS011;11027;51.030;13.812;2022-09-24T11:55:22;3.40;;;2.20;;
21729;SDS011;11027;51.030;13.812;2022-09-24T11:58:02;3.10;;;1.80;;
21729;SDS011;11027;51.030;13.812;2022-09-24T12:00:39;4.97;;;2.37;;
21729;SDS011;11027;51.030;13.812;2022-09-24T12:03:15;2.95;;;1.95;;
21729;SDS011;11027;51.030;13.812;2022-09-24T12:05:45;4.05;;;2.00;;
21729;SDS011;11027;51.030;13.812;2022-09-24T12:10:48;2.28;;;1.80;;
21729;SDS011;11027;51.030;13.812;2022-09-24T12:13:19;2.35;;;1.95;;
21729;SDS011;11027;51.030;13.812;2022-09-24T12:15:55;2.73;;;2.00;;
21729;SDS011;11027;51.030;13.812;2022-09-24T12:18:29;5.32;;;1.95;;
21729;SDS011;11027;51.030;13.812;2022-09-24T12:21:06;2.22;;;1.90;;
21729;SDS011;11027;51.030;13.812;2022-09-24T12:23:36;6.25;;;2.00;;
21729;SDS011;11027;51.030;13.812;2022-09-24T12:26:05;2.03;;;1.73;;
21729;SDS011;11027;51.030;13.812;2022-09-24T12:28:35;2.75;;;1.98;;
21729;SDS011;11027;51.030;13.812;2022-09-24T12:31:33;3.78;;;1.85;;
21729;SDS011;11027;51.030;13.812;2022-09-24T12:34:45;2.33;;;1.80;;
21729;SDS011;11027;51.030;13.812;2022-09-24T12:37:22;3.30;;;1.85;;
21729;SDS011;11027;51.030;13.812;2022-09-24T12:39:54;1.98;;;1.75;;
21729;SDS011;11027;51.030;13.812;2022-09-24T12:42:31;2.78;;;2.00;;
21729;SDS011;11027;51.030;13.812;2022-09-24T12:45:00;1.67;;;1.52;;
21729;SDS011;11027;51.030;13.812;2022-09-24T12:47:28;2.38;;;1.77;;
21729;SDS011;11027;51.030;13.812;2022-09-24T12:49:57;5.78;;;2.15;;
21729;SDS011;11027;51.030;13.812;2022-09-24T12:55:00;2.78;;;1.92;;
21729;SDS011;11027;51.030;13.812;2022-09-24T12:57:37;2.42;;;1.92;;
21729;SDS011;11027;51.030;13.812;2022-09-24T13:02:55;4.55;;;2.17;;
21729;SDS011;11027;51.030;13.812;2022-09-24T13:08:00;1.70;;;1.60;;
21729;SDS011;11027;51.030;13.812;2022-09-24T13:10:32;1.77;;;1.67;;
21729;SDS011;11027;51.030;13.812;2022-09-24T13:12:59;1.70;;;1.60;;
21729;SDS011;11027;51.030;13.812;2022-09-24T13:15:32;2.78;;;1.70;;
21729;SDS011;11027;51.030;13.812;2022-09-24T13:20:34;2.03;;;1.65;;
21729;SDS011;11027;51.030;13.812;2022-09-24T13:23:13;4.88;;;2.05;;
21729;SDS011;11027;51.030;13.812;2022-09-24T13:25:59;5.40;;;2.10;;
21729;SDS011;11027;51.030;13.812;2022-09-24T13:28:27;2.15;;;1.70;;
21729;SDS011;11027;51.030;13.812;2022-09-24T13:33:32;2.55;;;1.52;;
21729;SDS011;11027;51.030;13.812;2022-09-24T13:36:11;1.67;;;1.50;;
21729;SDS011;11027;51.030;13.812;2022-09-24T13:38:47;4.22;;;1.70;;
21729;SDS011;11027;51.030;13.812;2022-09-24T13:41:21;3.67;;;1.50;;
21729;SDS011;11027;51.030;13.812;2022-09-24T13:43:58;3.22;;;1.80;;
21729;SDS011;11027;51.030;13.812;2022-09-24T13:46:28;1.48;;;1.25;;
21729;SDS011;11027;51.030;13.812;2022-09-24T13:48:56;1.40;;;1.30;;
21729;SDS011;11027;51.030;13.812;2022-09-24T13:51:29;2.70;;;1.20;;
21729;SDS011;11027;51.030;13.812;2022-09-24T13:56:37;3.28;;;1.50;;
21729;SDS011;11027;51.030;13.812;2022-09-24T13:59:09;1.75;;;1.50;;
21729;SDS011;11027;51.030;13.812;2022-09-24T14:01:42;1.70;;;1.40;;
21729;SDS011;11027;51.030;13.812;2022-09-24T14:04:15;3.70;;;1.60;;
21729;SDS011;11027;51.030;13.812;2022-09-24T14:06:43;7.60;;;1.60;;
21729;SDS011;11027;51.030;13.812;2022-09-24T14:11:53;2.53;;;1.50;;
21729;SDS011;11027;51.030;13.812;2022-09-24T14:14:21;2.60;;;1.50;;
21729;SDS011;11027;51.030;13.812;2022-09-24T14:16:48;1.63;;;1.45;;
21729;SDS011;11027;51.030;13.812;2022-09-24T14:19:14;4.45;;;1.83;;
21729;SDS011;11027;51.030;13.812;2022-09-24T14:21:41;2.30;;;1.67;;
21729;SDS011;11027;51.030;13.812;2022-09-24T14:24:18;2.72;;;1.55;;
21729;SDS011;11027;51.030;13.812;2022-09-24T14:29:37;2.97;;;1.90;;
21729;SDS011;11027;51.030;13.812;2022-09-24T14:32:15;1.77;;;1.20;;
21729;SDS011;11027;51.030;13.812;2022-09-24T14:34:51;6.05;;;1.52;;
21729;SDS011;11027;51.030;13.812;2022-09-24T14:37:20;2.13;;;1.60;;
21729;SDS011;11027;51.030;13.812;2022-09-24T14:39:49;4.15;;;1.50;;
21729;SDS011;11027;51.030;13.812;2022-09-24T14:42:43;2.70;;;1.48;;
21729;SDS011;11027;51.030;13.812;2022-09-24T14:45:18;3.13;;;1.65;;
21729;SDS011;11027;51.030;13.812;2022-09-24T14:47:46;1.70;;;1.60;;
21729;SDS011;11027;51.030;13.812;2022-09-24T14:53:16;3.08;;;2.10;;
21729;SDS011;11027;51.030;13.812;2022-09-24T14:55:46;4.10;;;2.08;;
21729;SDS011;11027;51.030;13.812;2022-09-24T15:00:54;3.95;;;2.20;;
21729;SDS011;11027;51.030;13.812;2022-09-24T15:03:26;2.55;;;2.10;;
21729;SDS011;11027;51.030;13.812;2022-09-24T15:06:03;5.07;;;2.30;;
21729;SDS011;11027;51.030;13.812;2022-09-24T15:08:31;2.28;;;2.05;;
21729;SDS011;11027;51.030;13.812;2022-09-24T15:11:03;3.45;;;2.08;;
21729;SDS011;11027;51.030;13.812;2022-09-24T15:13:33;6.25;;;2.45;;
21729;SDS011;11027;51.030;13.812;2022-09-24T15:16:01;4.10;;;2.28;;
21729;SDS011;11027;51.030;13.812;2022-09-24T15:18:29;3.08;;;2.20;;
21729;SDS011;11027;51.030;13.812;2022-09-24T15:20:55;4.05;;;2.05;;
21729;SDS011;11027;51.030;13.812;2022-09-24T15:23:24;4.93;;;2.10;;
21729;SDS011;11027;51.030;13.812;2022-09-24T15:25:49;2.80;;;2.05;;
21729;SDS011;11027;51.030;13.812;2022-09-24T15:28:14;3.40;;;2.28;;
21729;SDS011;11027;51.030;13.812;2022-09-24T15:30:40;2.58;;;2.00;;
21729;SDS011;11027;51.030;13.812;2022-09-24T15:33:09;2.45;;;2.25;;
21729;SDS011;11027;51.030;13.812;2022-09-24T15:35:37;4.00;;;2.58;;
21729;SDS011;11027;51.030;13.812;2022-09-24T15:38:04;6.80;;;2.70;;
21729;SDS011;11027;51.030;13.812;2022-09-24T15:40:30;6.47;;;2.83;;
21729;SDS011;11027;51.030;13.812;2022-09-24T15:43:00;4.43;;;2.60;;
21729;SDS011;11027;51.030;13.812;2022-09-24T15:45:26;5.05;;;3.10;;
21729;SDS011;11027;51.030;13.812;2022-09-24T15:47:52;3.63;;;2.80;;
21729;SDS011;11027;51.030;13.812;2022-09-24T15:50:18;8.25;;;3.10;;
21729;SDS011;11027;51.030;13.812;2022-09-24T15:52:46;6.60;;;3.10;;
21729;SDS011;11027;51.030;13.812;2022-09-24T15:55:30;6.22;;;3.17;;
21729;SDS011;11027;51.030;13.812;2022-09-24T15:58:00;3.42;;;3.03;;
21729;SDS011;11027;51.030;13.812;2022-09-24T16:00:26;6.13;;;3.40;;
21729;SDS011;11027;51.030;13.812;2022-09-24T16:02:52;8.40;;;3.35;;
21729;SDS011;11027;51.030;13.812;2022-09-24T16:05:20;4.80;;;3.78;;
21729;SDS011;11027;51.030;13.812;2022-09-24T16:07:46;9.07;;;3.40;;
21729;SDS011;11027;51.030;13.812;2022-09-24T16:10:12;5.95;;;3.92;;
21729;SDS011;11027;51.030;13.812;2022-09-24T16:12:38;4.53;;;3.60;;
21729;SDS011;11027;51.030;13.812;2022-09-24T16:15:05;6.80;;;4.10;;
21729;SDS011;11027;51.030;13.812;2022-09-24T16:17:31;4.88;;;3.67;;
21729;SDS011;11027;51.030;13.812;2022-09-24T16:19:57;5.18;;;3.80;;
21729;SDS011;11027;51.030;13.812;2022-09-24T16:22:22;5.00;;;4.00;;